sensor_id;sensor_type;location;lat;lon;timestamp;P1;durP1;ratioP1;P2;durP2;ratioP2
31692;SDS011;37436;53.230;6.614;2023-02-04T11:51:02;12.79;;;4.14;;
31692;SDS011;37436;53.230;6.614;2023-02-04T11:53:34;6.72;;;2.45;;
31692;SDS011;37436;53.230;6.614;2023-02-04T11:56:03;8.95;;;2.42;;
31692;SDS011;37436;53.230;6.614;2023-02-04T11:58:33;6.40;;;2.20;;
31692;SDS011;37436;53.230;6.614;2023-02-04T12:01:02;7.38;;;2.60;;
31692;SDS011;37436;53.230;6.614;2023-02-04T12:03:31;11.27;;;2.58;;
31692;SDS011;37436;53.230;6.614;2023-02-04T12:06:07;8.27;;;2.78;;
31692;SDS011;37436;53.230;6.614;2023-02-04T12:08:34;12.35;;;2.65;;
31692;SDS011;37436;53.230;6.614;2023-02-04T12:11:02;7.13;;;2.45;;
31692;SDS011;37436;53.230;6.614;2023-02-04T12:13:32;6.05;;;2.25;;
31692;SDS011;37436;53.230;6.614;2023-02-04T12:16:02;4.03;;;1.98;;
31692;SDS011;37436;53.230;6.614;2023-02-04T12:18:29;8.13;;;2.20;;
31692;SDS011;37436;53.230;6.614;2023-02-04T12:21:02;9.30;;;2.30;;
31692;SDS011;37436;53.230;6.614;2023-02-04T12:23:28;13.07;;;2.55;;
31692;SDS011;37436;53.230;6.614;2023-02-04T12:25:55;4.40;;;1.73;;
31692;SDS011;37436;53.230;6.614;2023-02-04T12:28:25;4.00;;;1.88;;
31692;SDS011;37436;53.230;6.614;2023-02-04T12:30:55;5.55;;;1.70;;
31692;SDS011;37436;53.230;6.614;2023-02-04T12:33:22;5.00;;;1.50;;
31692;SDS011;37436;53.230;6.614;2023-02-04T12:35:48;2.65;;;1.52;;
31692;SDS011;37436;53.230;6.614;2023-02-04T12:38:14;4.38;;;2.17;;
31692;SDS011;37436;53.230;6.614;2023-02-04T12:40:40;2.60;;;1.30;;
31692;SDS011;37436;53.230;6.614;2023-02-04T12:43:09;2.47;;;1.30;;
31692;SDS011;37436;53.230;6.614;2023-02-04T12:45:50;4.18;;;1.77;;
31692;SDS011;37436;53.230;6.614;2023-02-04T12:48:19;4.07;;;1.48;;
31692;SDS011;37436;53.230;6.614;2023-02-04T12:50:45;5.72;;;1.73;;
31692;SDS011;37436;53.230;6.614;2023-02-04T12:53:17;5.70;;;1.40;;
31692;SDS011;37436;53.230;6.614;2023-02-04T12:55:50;2.92;;;1.35;;
31692;SDS011;37436;53.230;6.614;2023-02-04T12:58:18;4.38;;;1.45;;
31692;SDS011;37436;53.230;6.614;2023-02-04T13:00:45;2.58;;;1.00;;
31692;SDS011;37436;53.230;6.614;2023-02-04T13:03:11;3.92;;;1.38;;
31692;SDS011;37436;53.230;6.614;2023-02-04T13:05:37;6.82;;;1.10;;
31692;SDS011;37436;53.230;6.614;2023-02-04T13:08:03;4.85;;;1.30;;
31692;SDS011;37436;53.230;6.614;2023-02-04T13:10:33;2.78;;;1.33;;
31692;SDS011;37436;53.230;6.614;2023-02-04T13:13:06;4.53;;;1.45;;
31692;SDS011;37436;53.230;6.614;2023-02-04T13:15:33;6.03;;;1.50;;
31692;SDS011;37436;53.230;6.614;2023-02-04T13:17:59;3.97;;;1.35;;
31692;SDS011;37436;53.230;6.614;2023-02-04T13:20:28;6.70;;;1.33;;
31692;SDS011;37436;53.230;6.614;2023-02-04T13:23:00;3.63;;;1.30;;
31692;SDS011;37436;53.230;6.614;2023-02-04T13:25:34;2.08;;;1.27;;
31692;SDS011;37436;53.230;6.614;2023-02-04T13:28:08;4.43;;;1.65;;
31692;SDS011;37436;53.230;6.614;2023-02-04T13:30:34;7.88;;;1.83;;
31692;SDS011;37436;53.230;6.614;2023-02-04T13:33:00;6.65;;;1.17;;
31692;SDS011;37436;53.230;6.614;2023-02-04T13:35:30;2.90;;;1.60;;
31692;SDS011;37436;53.230;6.614;2023-02-04T13:37:57;4.20;;;1.35;;
31692;SDS011;37436;53.230;6.614;2023-02-04T13:40:23;5.97;;;1.45;;
31692;SDS011;37436;53.230;6.614;2023-02-04T13:42:50;3.92;;;1.92;;
31692;SDS011;37436;53.230;6.614;2023-02-04T13:45:18;7.68;;;1.67;;
31692;SDS011;37436;53.230;6.614;2023-02-04T13:47:44;4.88;;;1.30;;
31692;SDS011;37436;53.230;6.614;2023-02-04T13:50:18;3.67;;;1.52;;
31692;SDS011;37436;53.230;6.614;2023-02-04T13:52:47;3.75;;;1.30;;
31692;SDS011;37436;53.230;6.614;2023-02-04T13:55:19;4.95;;;1.50;;
31692;SDS011;37436;53.230;6.614;2023-02-04T13:57:45;2.30;;;1.20;;
31692;SDS011;37436;53.230;6.614;2023-02-04T14:00:14;6.00;;;1.70;;
31692;SDS011;37436;53.230;6.614;2023-02-04T14:02:40;4.70;;;1.60;;
31692;SDS011;37436;53.230;6.614;2023-02-04T14:05:19;2.85;;;1.38;;
31692;SDS011;37436;53.230;6.614;2023-02-04T14:07:45;7.35;;;2.03;;
31692;SDS011;37436;53.230;6.614;2023-02-04T14:10:12;4.22;;;1.40;;
31692;SDS011;37436;53.230;6.614;2023-02-04T14:12:41;4.88;;;1.85;;
31692;SDS011;37436;53.230;6.614;2023-02-04T14:15:08;5.00;;;1.70;;
31692;SDS011;37436;53.230;6.614;2023-02-04T14:17:34;3.15;;;1.35;;
31692;SDS011;37436;53.230;6.614;2023-02-04T14:20:03;5.25;;;1.48;;
31692;SDS011;37436;53.230;6.614;2023-02-04T14:22:30;4.45;;;1.60;;
31692;SDS011;37436;53.230;6.614;2023-02-04T14:24:56;10.57;;;2.00;;
31692;SDS011;37436;53.230;6.614;2023-02-04T14:27:22;2.65;;;1.77;;
31692;SDS011;37436;53.230;6.614;2023-02-04T14:29:57;2.90;;;1.88;;
31692;SDS011;37436;53.230;6.614;2023-02-04T14:32:23;3.10;;;1.52;;
31692;SDS011;37436;53.230;6.614;2023-02-04T14:34:53;4.40;;;1.50;;
31692;SDS011;37436;53.230;6.614;2023-02-04T14:37:19;4.65;;;2.47;;
31692;SDS011;37436;53.230;6.614;2023-02-04T14:39:48;3.72;;;1.92;;
31692;SDS011;37436;53.230;6.614;2023-02-04T14:42:17;3.03;;;1.80;;
31692;SDS011;37436;53.230;6.614;2023-02-04T14:44:43;3.80;;;1.23;;
31692;SDS011;37436;53.230;6.614;2023-02-04T14:47:12;3.83;;;1.23;;
31692;SDS011;37436;53.230;6.614;2023-02-04T14:49:38;3.05;;;1.50;;
31692;SDS011;37436;53.230;6.614;2023-02-04T14:52:05;4.57;;;1.50;;
31692;SDS011;37436;53.230;6.614;2023-02-04T14:54:31;4.43;;;1.50;;
31692;SDS011;37436;53.230;6.614;2023-02-04T14:56:58;3.50;;;1.77;;
31692;SDS011;37436;53.230;6.614;2023-02-04T14:59:24;8.18;;;2.00;;
31692;SDS011;37436;53.230;6.614;2023-02-04T15:02:11;4.00;;;1.70;;
31692;SDS011;37436;53.230;6.614;2023-02-04T15:04:40;4.20;;;2.38;;
31692;SDS011;37436;53.230;6.614;2023-02-04T15:07:10;4.18;;;1.50;;
31692;SDS011;37436;53.230;6.614;2023-02-04T15:09:40;5.32;;;1.85;;
31692;SDS011;37436;53.230;6.614;2023-02-04T15:12:09;2.95;;;1.80;;
31692;SDS011;37436;53.230;6.614;2023-02-04T15:14:40;3.03;;;1.70;;
31692;SDS011;37436;53.230;6.614;2023-02-04T15:17:09;4.53;;;2.30;;
31692;SDS011;37436;53.230;6.614;2023-02-04T15:19:35;6.45;;;2.85;;
31692;SDS011;37436;53.230;6.614;2023-02-04T15:22:06;3.63;;;2.00;;
31692;SDS011;37436;53.230;6.614;2023-02-04T15:24:34;4.80;;;1.73;;
31692;SDS011;37436;53.230;6.614;2023-02-04T15:27:06;2.55;;;1.58;;
31692;SDS011;37436;53.230;6.614;2023-02-04T15:29:35;4.57;;;1.85;;
31692;SDS011;37436;53.230;6.614;2023-02-04T15:32:01;6.70;;;2.13;;
31692;SDS011;37436;53.230;6.614;2023-02-04T15:34:27;3.00;;;1.92;;
31692;SDS011;37436;53.230;6.614;2023-02-04T15:36:59;7.35;;;2.25;;
31692;SDS011;37436;53.230;6.614;2023-02-04T15:39:25;4.70;;;2.20;;
31692;SDS011;37436;53.230;6.614;2023-02-04T15:41:52;4.93;;;2.20;;
31692;SDS011;37436;53.230;6.614;2023-02-04T15:44:18;3.75;;;2.20;;
31692;SDS011;37436;53.230;6.614;2023-02-04T15:46:45;4.28;;;2.38;;
31692;SDS011;37436;53.230;6.614;2023-02-04T15:49:14;4.15;;;2.38;;
31692;SDS011;37436;53.230;6.614;2023-02-04T15:51:40;8.82;;;2.60;;
31692;SDS011;37436;53.230;6.614;2023-02-04T15:54:06;3.85;;;2.13;;
31692;SDS011;37436;53.230;6.614;2023-02-04T15:56:33;5.05;;;2.50;;
31692;SDS011;37436;53.230;6.614;2023-02-04T15:59:04;5.68;;;2.85;;
31692;SDS011;37436;53.230;6.614;2023-02-04T16:02:01;5.00;;;3.05;;
31692;SDS011;37436;53.230;6.614;2023-02-04T16:04:27;4.13;;;2.47;;
31692;SDS011;37436;53.230;6.614;2023-02-04T16:06:54;6.80;;;2.97;;
31692;SDS011;37436;53.230;6.614;2023-02-04T16:09:20;3.85;;;2.70;;
31692;SDS011;37436;53.230;6.614;2023-02-04T16:11:46;11.85;;;3.55;;
31692;SDS011;37436;53.230;6.614;2023-02-04T16:14:12;6.22;;;2.92;;
31692;SDS011;37436;53.230;6.614;2023-02-04T16:16:38;12.95;;;2.58;;
31692;SDS011;37436;53.230;6.614;2023-02-04T16:19:05;8.05;;;3.30;;
31692;SDS011;37436;53.230;6.614;2023-02-04T16:21:33;5.00;;;2.92;;
31692;SDS011;37436;53.230;6.614;2023-02-04T16:24:00;4.97;;;3.13;;
31692;SDS011;37436;53.230;6.614;2023-02-04T16:26:29;7.75;;;3.28;;
31692;SDS011;37436;53.230;6.614;2023-02-04T16:29:02;8.27;;;3.60;;
31692;SDS011;37436;53.230;6.614;2023-02-04T16:31:28;7.85;;;4.22;;
31692;SDS011;37436;53.230;6.614;2023-02-04T16:33:55;8.98;;;3.53;;
31692;SDS011;37436;53.230;6.614;2023-02-04T16:36:21;11.88;;;3.72;;
31692;SDS011;37436;53.230;6.614;2023-02-04T16:38:47;5.63;;;3.28;;
31692;SDS011;37436;53.230;6.614;2023-02-04T16:41:13;6.43;;;3.90;;
31692;SDS011;37436;53.230;6.614;2023-02-04T16:43:39;7.88;;;3.97;;
31692;SDS011;37436;53.230;6.614;2023-02-04T16:46:06;8.07;;;3.45;;
31692;SDS011;37436;53.230;6.614;2023-02-04T16:48:32;7.47;;;3.67;;
31692;SDS011;37436;53.230;6.614;2023-02-04T16:51:03;8.10;;;3.83;;
31692;SDS011;37436;53.230;6.614;2023-02-04T16:53:32;10.10;;;3.83;;
31692;SDS011;37436;53.230;6.614;2023-02-04T16:56:04;7.03;;;4.10;;
31692;SDS011;37436;53.230;6.614;2023-02-04T16:58:30;13.05;;;5.78;;
31692;SDS011;37436;53.230;6.614;2023-02-04T17:00:59;15.15;;;6.35;;
31692;SDS011;37436;53.230;6.614;2023-02-04T17:03:25;8.88;;;4.97;;
31692;SDS011;37436;53.230;6.614;2023-02-04T17:05:52;7.13;;;4.38;;
31692;SDS011;37436;53.230;6.614;2023-02-04T17:11:21;11.27;;;5.05;;
31692;SDS011;37436;53.230;6.614;2023-02-04T17:13:54;17.27;;;7.38;;
31692;SDS011;37436;53.230;6.614;2023-02-04T17:16:20;12.13;;;5.82;;
31692;SDS011;37436;53.230;6.614;2023-02-04T17:18:49;7.53;;;4.80;;
31692;SDS011;37436;53.230;6.614;2023-02-04T17:21:19;8.82;;;5.30;;
31692;SDS011;37436;53.230;6.614;2023-02-04T17:23:46;14.68;;;5.63;;
31692;SDS011;37436;53.230;6.614;2023-02-04T17:26:18;13.55;;;5.63;;
31692;SDS011;37436;53.230;6.614;2023-02-04T17:28:45;10.65;;;5.80;;
31692;SDS011;37436;53.230;6.614;2023-02-04T17:31:16;11.25;;;4.82;;
31692;SDS011;37436;53.230;6.614;2023-02-04T17:33:43;16.92;;;5.88;;
31692;SDS011;37436;53.230;6.614;2023-02-04T17:36:10;11.55;;;5.07;;
31692;SDS011;37436;53.230;6.614;2023-02-04T17:38:39;7.68;;;5.35;;
31692;SDS011;37436;53.230;6.614;2023-02-04T17:41:08;10.65;;;5.63;;
31692;SDS011;37436;53.230;6.614;2023-02-04T17:43:35;13.48;;;6.03;;
31692;SDS011;37436;53.230;6.614;2023-02-04T17:46:01;15.02;;;6.57;;
31692;SDS011;37436;53.230;6.614;2023-02-04T17:48:27;11.15;;;6.40;;
31692;SDS011;37436;53.230;6.614;2023-02-04T17:50:53;11.85;;;5.82;;
31692;SDS011;37436;53.230;6.614;2023-02-04T17:53:22;11.77;;;5.72;;
31692;SDS011;37436;53.230;6.614;2023-02-04T17:55:49;10.85;;;5.38;;
31692;SDS011;37436;53.230;6.614;2023-02-04T17:58:25;15.65;;;6.45;;
31692;SDS011;37436;53.230;6.614;2023-02-04T18:00:53;8.25;;;5.13;;
31692;SDS011;37436;53.230;6.614;2023-02-04T18:03:22;12.25;;;6.22;;
31692;SDS011;37436;53.230;6.614;2023-02-04T18:05:50;8.13;;;5.53;;
31692;SDS011;37436;53.230;6.614;2023-02-04T18:10:50;9.57;;;4.95;;
31692;SDS011;37436;53.230;6.614;2023-02-04T18:13:18;10.20;;;5.07;;
31692;SDS011;37436;53.230;6.614;2023-02-04T18:15:45;12.05;;;5.10;;
31692;SDS011;37436;53.230;6.614;2023-02-04T18:20:49;10.00;;;5.30;;
31692;SDS011;37436;53.230;6.614;2023-02-04T18:23:18;9.30;;;5.03;;
31692;SDS011;37436;53.230;6.614;2023-02-04T18:25:53;10.43;;;5.43;;
31692;SDS011;37436;53.230;6.614;2023-02-04T18:28:20;10.40;;;4.72;;
31692;SDS011;37436;53.230;6.614;2023-02-04T18:30:49;9.50;;;5.95;;
31692;SDS011;37436;53.230;6.614;2023-02-04T18:33:25;11.13;;;5.28;;
31692;SDS011;37436;53.230;6.614;2023-02-04T18:36:03;13.77;;;5.85;;
31692;SDS011;37436;53.230;6.614;2023-02-04T18:38:33;9.50;;;5.15;;
31692;SDS011;37436;53.230;6.614;2023-02-04T18:43:54;14.50;;;5.20;;
31692;SDS011;37436;53.230;6.614;2023-02-04T18:46:27;11.02;;;5.90;;
31692;SDS011;37436;53.230;6.614;2023-02-04T18:49:00;11.85;;;5.80;;
31692;SDS011;37436;53.230;6.614;2023-02-04T18:51:31;14.20;;;5.88;;
31692;SDS011;37436;53.230;6.614;2023-02-04T18:57:50;8.90;;;4.78;;
31692;SDS011;37436;53.230;6.614;2023-02-04T19:03:34;16.17;;;5.85;;
31692;SDS011;37436;53.230;6.614;2023-02-04T19:06:50;14.75;;;5.72;;
31692;SDS011;37436;53.230;6.614;2023-02-04T19:11:25;11.68;;;5.60;;
31692;SDS011;37436;53.230;6.614;2023-02-04T19:13:57;12.23;;;5.70;;
31692;SDS011;37436;53.230;6.614;2023-02-04T19:16:24;12.75;;;6.07;;
31692;SDS011;37436;53.230;6.614;2023-02-04T19:18:53;9.88;;;5.18;;
31692;SDS011;37436;53.230;6.614;2023-02-04T19:21:24;11.75;;;6.07;;
31692;SDS011;37436;53.230;6.614;2023-02-04T19:23:55;14.23;;;6.80;;
31692;SDS011;37436;53.230;6.614;2023-02-04T19:28:52;9.60;;;5.65;;
31692;SDS011;37436;53.230;6.614;2023-02-04T19:31:19;12.35;;;6.07;;
31692;SDS011;37436;53.230;6.614;2023-02-04T19:33:47;12.68;;;6.68;;
31692;SDS011;37436;53.230;6.614;2023-02-04T19:36:22;13.75;;;6.80;;
31692;SDS011;37436;53.230;6.614;2023-02-04T19:38:58;13.43;;;6.50;;
31692;SDS011;37436;53.230;6.614;2023-02-04T19:41:26;16.75;;;7.15;;
31692;SDS011;37436;53.230;6.614;2023-02-04T19:44:18;19.02;;;6.78;;
31692;SDS011;37436;53.230;6.614;2023-02-04T19:46:49;14.23;;;5.90;;
31692;SDS011;37436;53.230;6.614;2023-02-04T19:49:27;13.30;;;6.00;;
31692;SDS011;37436;53.230;6.614;2023-02-04T19:51:56;13.85;;;6.63;;
31692;SDS011;37436;53.230;6.614;2023-02-04T19:54:24;14.23;;;5.85;;
31692;SDS011;37436;53.230;6.614;2023-02-04T19:56:52;12.75;;;5.90;;
31692;SDS011;37436;53.230;6.614;2023-02-04T19:59:32;10.98;;;5.60;;
31692;SDS011;37436;53.230;6.614;2023-02-04T20:04:39;10.65;;;5.55;;
31692;SDS011;37436;53.230;6.614;2023-02-04T20:07:20;10.32;;;5.53;;
31692;SDS011;37436;53.230;6.614;2023-02-04T20:09:46;9.75;;;4.82;;
31692;SDS011;37436;53.230;6.614;2023-02-04T20:12:16;7.53;;;5.05;;
31692;SDS011;37436;53.230;6.614;2023-02-04T20:14:43;11.07;;;5.80;;
31692;SDS011;37436;53.230;6.614;2023-02-04T20:17:12;17.50;;;6.10;;
31692;SDS011;37436;53.230;6.614;2023-02-04T20:19:43;12.13;;;6.18;;
31692;SDS011;37436;53.230;6.614;2023-02-04T20:24:36;13.05;;;5.97;;
31692;SDS011;37436;53.230;6.614;2023-02-04T20:27:23;13.55;;;6.35;;
31692;SDS011;37436;53.230;6.614;2023-02-04T20:29:52;10.65;;;5.82;;
31692;SDS011;37436;53.230;6.614;2023-02-04T20:32:23;13.18;;;6.35;;
31692;SDS011;37436;53.230;6.614;2023-02-04T20:37:35;10.77;;;5.65;;
31692;SDS011;37436;53.230;6.614;2023-02-04T20:42:46;12.90;;;6.60;;
31692;SDS011;37436;53.230;6.614;2023-02-04T20:47:50;11.48;;;6.28;;
31692;SDS011;37436;53.230;6.614;2023-02-04T20:50:25;10.45;;;5.70;;
31692;SDS011;37436;53.230;6.614;2023-02-04T20:53:00;13.98;;;5.47;;
31692;SDS011;37436;53.230;6.614;2023-02-04T20:55:30;11.55;;;6.15;;
31692;SDS011;37436;53.230;6.614;2023-02-04T20:58:11;11.48;;;6.32;;
31692;SDS011;37436;53.230;6.614;2023-02-04T21:00:39;21.98;;;5.95;;
31692;SDS011;37436;53.230;6.614;2023-02-04T21:03:20;13.18;;;6.18;;
31692;SDS011;37436;53.230;6.614;2023-02-04T21:05:46;13.52;;;6.43;;
31692;SDS011;37436;53.230;6.614;2023-02-04T21:10:45;11.23;;;5.55;;
31692;SDS011;37436;53.230;6.614;2023-02-04T21:13:12;13.05;;;6.10;;
31692;SDS011;37436;53.230;6.614;2023-02-04T21:15:38;11.10;;;6.05;;
31692;SDS011;37436;53.230;6.614;2023-02-04T21:18:04;11.10;;;5.53;;
31692;SDS011;37436;53.230;6.614;2023-02-04T21:20:31;11.45;;;6.25;;
31692;SDS011;37436;53.230;6.614;2023-02-04T21:23:17;14.48;;;6.00;;
31692;SDS011;37436;53.230;6.614;2023-02-04T21:25:43;10.82;;;5.55;;
31692;SDS011;37436;53.230;6.614;2023-02-04T21:28:10;15.98;;;5.35;;
31692;SDS011;37436;53.230;6.614;2023-02-04T21:30:36;20.38;;;7.07;;
31692;SDS011;37436;53.230;6.614;2023-02-04T21:33:04;12.38;;;6.35;;
31692;SDS011;37436;53.230;6.614;2023-02-04T21:35:32;11.82;;;5.68;;
31692;SDS011;37436;53.230;6.614;2023-02-04T21:37:58;13.70;;;6.00;;
31692;SDS011;37436;53.230;6.614;2023-02-04T21:40:28;13.10;;;5.70;;
31692;SDS011;37436;53.230;6.614;2023-02-04T21:42:54;10.07;;;5.90;;
31692;SDS011;37436;53.230;6.614;2023-02-04T21:45:21;9.35;;;5.45;;
31692;SDS011;37436;53.230;6.614;2023-02-04T21:47:48;12.25;;;6.40;;
31692;SDS011;37436;53.230;6.614;2023-02-04T21:50:15;11.68;;;6.45;;
31692;SDS011;37436;53.230;6.614;2023-02-04T21:52:41;12.60;;;6.10;;
31692;SDS011;37436;53.230;6.614;2023-02-04T21:55:08;11.30;;;5.55;;
31692;SDS011;37436;53.230;6.614;2023-02-04T21:57:35;12.02;;;5.97;;
31692;SDS011;37436;53.230;6.614;2023-02-04T22:00:01;10.45;;;5.90;;
31692;SDS011;37436;53.230;6.614;2023-02-04T22:02:27;10.07;;;5.82;;
31692;SDS011;37436;53.230;6.614;2023-02-04T22:04:56;13.48;;;6.65;;
31692;SDS011;37436;53.230;6.614;2023-02-04T22:07:22;10.98;;;5.78;;
31692;SDS011;37436;53.230;6.614;2023-02-04T22:09:48;10.05;;;6.13;;
31692;SDS011;37436;53.230;6.614;2023-02-04T22:12:18;21.95;;;6.65;;
31692;SDS011;37436;53.230;6.614;2023-02-04T22:14:47;13.70;;;6.60;;
31692;SDS011;37436;53.230;6.614;2023-02-04T22:17:33;12.05;;;6.05;;
31692;SDS011;37436;53.230;6.614;2023-02-04T22:19:59;12.38;;;6.60;;
31692;SDS011;37436;53.230;6.614;2023-02-04T22:22:28;13.77;;;5.97;;
31692;SDS011;37436;53.230;6.614;2023-02-04T22:24:54;17.63;;;7.00;;
31692;SDS011;37436;53.230;6.614;2023-02-04T22:27:20;12.38;;;6.63;;
31692;SDS011;37436;53.230;6.614;2023-02-04T22:30:11;13.10;;;6.38;;
31692;SDS011;37436;53.230;6.614;2023-02-04T22:32:38;11.88;;;6.47;;
31692;SDS011;37436;53.230;6.614;2023-02-04T22:35:05;16.33;;;6.82;;
31692;SDS011;37436;53.230;6.614;2023-02-04T22:37:43;13.10;;;7.18;;
31692;SDS011;37436;53.230;6.614;2023-02-04T22:40:09;12.20;;;6.17;;
31692;SDS011;37436;53.230;6.614;2023-02-04T22:42:36;12.85;;;6.57;;
31692;SDS011;37436;53.230;6.614;2023-02-04T22:45:05;12.60;;;6.95;;
31692;SDS011;37436;53.230;6.614;2023-02-04T22:47:42;9.80;;;6.43;;
31692;SDS011;37436;53.230;6.614;2023-02-04T22:50:12;12.13;;;6.28;;
31692;SDS011;37436;53.230;6.614;2023-02-04T22:52:40;14.70;;;6.28;;
31692;SDS011;37436;53.230;6.614;2023-02-04T22:55:12;12.13;;;6.68;;
31692;SDS011;37436;53.230;6.614;2023-02-04T22:57:52;11.38;;;6.38;;
31692;SDS011;37436;53.230;6.614;2023-02-04T23:00:27;12.90;;;6.85;;
31692;SDS011;37436;53.230;6.614;2023-02-04T23:06:30;12.25;;;6.93;;
31692;SDS011;37436;53.230;6.614;2023-02-04T23:12:23;15.02;;;6.55;;
31692;SDS011;37436;53.230;6.614;2023-02-04T23:17:48;12.18;;;7.30;;
31692;SDS011;37436;53.230;6.614;2023-02-04T23:20:20;15.48;;;7.35;;
31692;SDS011;37436;53.230;6.614;2023-02-04T23:22:57;13.10;;;7.30;;
31692;SDS011;37436;53.230;6.614;2023-02-04T23:25:24;13.30;;;7.20;;
31692;SDS011;37436;53.230;6.614;2023-02-04T23:27:52;12.75;;;6.30;;
31692;SDS011;37436;53.230;6.614;2023-02-04T23:30:22;15.63;;;7.32;;
31692;SDS011;37436;53.230;6.614;2023-02-04T23:32:51;17.23;;;7.45;;
31692;SDS011;37436;53.230;6.614;2023-02-04T23:35:24;10.98;;;6.95;;
31692;SDS011;37436;53.230;6.614;2023-02-04T23:37:50;11.32;;;6.72;;
31692;SDS011;37436;53.230;6.614;2023-02-04T23:40:20;14.43;;;6.82;;
31692;SDS011;37436;53.230;6.614;2023-02-04T23:42:46;13.77;;;6.93;;
31692;SDS011;37436;53.230;6.614;2023-02-04T23:45:12;15.52;;;7.63;;
31692;SDS011;37436;53.230;6.614;2023-02-04T23:47:41;15.57;;;6.30;;
31692;SDS011;37436;53.230;6.614;2023-02-04T23:50:10;12.50;;;6.93;;
31692;SDS011;37436;53.230;6.614;2023-02-04T23:52:36;17.58;;;6.90;;
31692;SDS011;37436;53.230;6.614;2023-02-04T23:55:03;13.43;;;6.45;;
31692;SDS011;37436;53.230;6.614;2023-02-04T23:57:36;12.38;;;6.80;;
